createdAt,value
2022-11-12T00:02:03.575Z,8.57
2022-11-12T00:07:05.073Z,10.73
2022-11-12T00:12:06.562Z,16.00
2022-11-12T00:17:07.893Z,11.80
2022-11-12T00:22:09.335Z,15.30
2022-11-12T00:27:12.012Z,13.85
2022-11-12T00:32:13.594Z,15.95
2022-11-12T00:37:15.093Z,17.60
2022-11-12T00:42:16.480Z,13.57
2022-11-12T00:47:17.895Z,14.50
2022-11-12T00:52:19.331Z,11.45
2022-11-12T00:57:20.825Z,12.00
2022-11-12T01:02:22.279Z,9.77
2022-11-12T01:07:23.763Z,11.30
2022-11-12T01:12:25.203Z,12.23
2022-11-12T01:17:26.778Z,13.70
2022-11-12T01:22:28.211Z,12.77
2022-11-12T01:27:29.567Z,11.15
2022-11-12T01:32:35.168Z,15.02
2022-11-12T01:37:36.595Z,10.02
2022-11-12T01:42:39.116Z,13.82
2022-11-12T01:47:40.873Z,12.75
2022-11-12T01:52:50.481Z,12.10
2022-11-12T01:58:00.156Z,11.95
2022-11-12T02:03:04.911Z,13.98
2022-11-12T02:08:07.439Z,12.48
2022-11-12T02:13:27.951Z,12.32
2022-11-12T02:18:29.544Z,13.23
2022-11-12T02:23:32.330Z,12.00
2022-11-12T02:28:33.789Z,16.35
2022-11-12T02:33:35.341Z,13.45
2022-11-12T02:38:36.760Z,12.55
2022-11-12T02:43:38.754Z,9.63
2022-11-12T02:48:40.304Z,11.82
2022-11-12T02:53:41.716Z,12.80
2022-11-12T02:58:43.218Z,12.85
2022-11-12T03:03:44.674Z,12.75
2022-11-12T03:08:46.231Z,12.00
2022-11-12T03:13:47.668Z,14.98
2022-11-12T03:18:49.066Z,15.98
2022-11-12T03:23:50.452Z,14.35
2022-11-12T03:28:51.967Z,15.95
2022-11-12T03:33:53.331Z,12.57
2022-11-12T03:38:54.685Z,13.18
2022-11-12T03:43:56.064Z,14.45
2022-11-12T03:48:59.395Z,15.70
2022-11-12T03:54:00.789Z,21.52
2022-11-12T03:59:02.179Z,16.83
2022-11-12T04:04:03.663Z,16.65
2022-11-12T04:09:05.097Z,14.30
2022-11-12T04:14:06.763Z,15.70
2022-11-12T04:19:30.667Z,11.65
2022-11-12T04:24:55.614Z,12.80
2022-11-12T04:30:16.190Z,15.90
2022-11-12T04:35:19.113Z,13.98
2022-11-12T04:40:44.403Z,12.73
2022-11-12T04:45:48.741Z,13.70
2022-11-12T04:50:54.522Z,13.93
2022-11-12T04:55:58.484Z,12.13
2022-11-12T05:00:59.890Z,11.88
2022-11-12T05:06:29.288Z,13.25
2022-11-12T05:11:30.648Z,16.90
2022-11-12T05:16:32.134Z,14.63
2022-11-12T05:21:52.061Z,10.93
2022-11-12T05:26:54.374Z,13.55
2022-11-12T05:31:55.825Z,15.68
2022-11-12T05:36:57.308Z,19.92
2022-11-12T05:42:12.352Z,11.13
2022-11-12T05:47:14.633Z,11.75
2022-11-12T05:52:15.988Z,13.43
2022-11-12T05:57:17.393Z,13.57
2022-11-12T06:02:18.938Z,17.23
2022-11-12T06:07:20.571Z,11.82
2022-11-12T06:12:21.998Z,12.98
2022-11-12T06:17:23.605Z,13.30
2022-11-12T06:22:24.995Z,10.15
2022-11-12T06:27:26.492Z,10.63
2022-11-12T06:32:27.859Z,10.10
2022-11-12T06:37:29.268Z,10.90
2022-11-12T06:42:30.691Z,9.88
2022-11-12T06:47:32.107Z,10.05
2022-11-12T06:52:33.522Z,10.98
2022-11-12T06:57:35.254Z,12.77
2022-11-12T07:02:37.195Z,12.45
2022-11-12T07:07:38.543Z,10.10
2022-11-12T07:12:39.904Z,11.30
2022-11-12T07:17:45.230Z,11.32
2022-11-12T07:22:46.670Z,10.98
2022-11-12T07:27:49.946Z,9.63
2022-11-12T07:32:52.215Z,13.48
2022-11-12T07:37:59.405Z,13.85
2022-11-12T07:43:01.068Z,9.88
2022-11-12T07:48:02.483Z,14.25
2022-11-12T07:53:03.871Z,14.07
2022-11-12T07:58:05.268Z,15.02
2022-11-12T08:03:06.639Z,12.80
2022-11-12T08:08:08.256Z,12.77
2022-11-12T08:13:09.711Z,11.45
2022-11-12T08:18:11.240Z,13.82
2022-11-12T08:23:12.672Z,17.75
2022-11-12T08:28:14.022Z,19.50
2022-11-12T08:33:15.368Z,18.63
2022-11-12T08:38:17.838Z,27.67
2022-11-12T08:43:19.268Z,28.90
2022-11-12T08:48:21.057Z,31.55
2022-11-12T08:53:24.684Z,35.15
2022-11-12T08:58:27.047Z,34.38
2022-11-12T09:03:28.725Z,39.08
2022-11-12T09:08:30.506Z,30.55
2022-11-12T09:13:32.558Z,38.28
2022-11-12T09:18:34.404Z,39.47
2022-11-12T09:23:36.230Z,43.75
2022-11-12T09:28:37.590Z,50.58
2022-11-12T09:33:39.076Z,45.05
2022-11-12T09:38:40.480Z,55.40
2022-11-12T09:43:53.991Z,53.40
2022-11-12T09:49:23.177Z,79.93
2022-11-12T09:54:27.791Z,56.45
2022-11-12T09:59:32.097Z,58.53
2022-11-12T10:04:42.201Z,52.97
2022-11-12T10:10:05.686Z,56.63
2022-11-12T10:15:51.316Z,48.20
2022-11-12T10:21:01.726Z,36.65
2022-11-12T10:26:12.404Z,44.88
2022-11-12T10:31:20.063Z,41.40
2022-11-12T10:36:31.626Z,38.15
2022-11-12T10:41:34.068Z,36.28
2022-11-12T10:46:37.730Z,36.88
2022-11-12T10:51:39.172Z,30.10
2022-11-12T10:56:40.548Z,27.73
2022-11-12T11:01:46.142Z,21.17
2022-11-12T11:06:47.962Z,22.38
2022-11-12T11:11:55.704Z,24.33
2022-11-12T11:17:04.600Z,21.00
2022-11-12T11:22:31.871Z,24.65
2022-11-12T11:33:04.541Z,22.55
2022-11-12T11:38:24.541Z,21.80
2022-11-12T11:43:44.650Z,15.38
2022-11-12T11:49:04.769Z,17.85
2022-11-12T11:54:20.732Z,11.82
2022-11-12T11:59:44.190Z,12.60
2022-11-12T12:04:49.181Z,15.23
2022-11-12T12:10:12.713Z,11.35
2022-11-12T12:15:26.340Z,13.35
2022-11-12T12:20:55.635Z,10.07
2022-11-12T12:26:00.538Z,12.57
2022-11-12T12:31:09.844Z,11.93
2022-11-12T12:36:25.272Z,11.75
2022-11-12T12:41:42.874Z,10.27
2022-11-12T12:46:55.875Z,9.65
2022-11-12T12:51:59.873Z,16.38
2022-11-12T12:57:04.418Z,12.52
2022-11-12T13:02:20.819Z,11.23
2022-11-12T13:07:43.414Z,12.50
2022-11-12T13:13:04.678Z,14.50
2022-11-12T13:18:16.876Z,11.82
2022-11-12T13:24:07.796Z,11.02
2022-11-12T13:29:27.484Z,14.13
2022-11-12T13:34:33.460Z,12.43
2022-11-12T13:39:36.309Z,12.57
2022-11-12T13:44:37.921Z,24.73
2022-11-12T13:49:39.443Z,12.50
2022-11-12T13:54:40.972Z,16.45
2022-11-12T13:59:42.835Z,11.40
2022-11-12T14:04:44.570Z,11.40
2022-11-12T14:10:02.347Z,12.13
2022-11-12T14:15:16.720Z,13.80
2022-11-12T14:20:24.899Z,17.58
2022-11-12T14:25:28.401Z,11.77
2022-11-12T14:30:33.167Z,12.65
2022-11-12T14:35:38.916Z,13.00
2022-11-12T14:40:47.987Z,8.37
2022-11-12T14:45:51.215Z,14.02
2022-11-12T14:51:01.076Z,12.65
2022-11-12T14:56:06.398Z,13.57
2022-11-12T15:02:13.856Z,25.08
2022-11-12T15:06:53.767Z,12.27
2022-11-12T15:11:55.228Z,8.93
2022-11-12T15:16:56.806Z,16.67
2022-11-12T15:22:01.431Z,13.10
2022-11-12T15:27:37.674Z,11.50
2022-11-12T15:32:39.257Z,13.83
2022-11-12T15:37:42.999Z,17.88
2022-11-12T15:42:44.974Z,10.52
2022-11-12T15:47:46.850Z,7.95
2022-11-12T15:52:48.976Z,8.50
2022-11-12T15:57:52.991Z,8.70
2022-11-12T16:03:00.092Z,12.52
2022-11-12T16:08:01.488Z,8.32
2022-11-12T16:13:04.398Z,14.70
2022-11-12T16:18:05.916Z,12.93
2022-11-12T16:23:07.366Z,11.23
2022-11-12T16:28:14.560Z,11.27
2022-11-12T16:33:17.069Z,11.80
2022-11-12T16:38:25.539Z,12.77
2022-11-12T16:43:27.267Z,7.43
2022-11-12T16:48:29.540Z,11.68
2022-11-12T16:53:31.242Z,10.95
2022-11-12T16:58:35.057Z,19.98
2022-11-12T17:03:41.277Z,21.65
2022-11-12T17:08:45.376Z,16.92
2022-11-12T17:13:46.772Z,23.17
2022-11-12T17:18:54.235Z,16.02
2022-11-12T17:23:57.902Z,18.55
2022-11-12T17:29:04.906Z,18.90
2022-11-12T17:34:11.487Z,18.02
2022-11-12T17:39:16.118Z,19.35
2022-11-12T17:44:19.129Z,10.23
2022-11-12T17:49:23.368Z,10.05
2022-11-12T17:54:24.931Z,10.95
2022-11-12T17:59:26.348Z,12.95
2022-11-12T18:04:31.015Z,12.30
2022-11-12T18:09:32.670Z,18.10
2022-11-12T18:14:34.537Z,14.05
2022-11-12T18:19:36.182Z,19.92
2022-11-12T18:24:37.801Z,22.92
2022-11-12T18:29:41.484Z,7.72
2022-11-12T18:34:45.159Z,8.80
2022-11-12T18:39:46.701Z,12.07
2022-11-12T18:44:48.074Z,12.38
2022-11-12T18:49:49.711Z,9.93
2022-11-12T18:54:51.230Z,9.18
2022-11-12T18:59:54.960Z,10.32
2022-11-12T19:04:59.253Z,9.63
2022-11-12T19:10:01.391Z,6.82
2022-11-12T19:15:03.154Z,67.93
2022-11-12T19:20:05.414Z,12.07
2022-11-12T19:25:10.630Z,7.63
2022-11-12T19:30:12.557Z,10.40
2022-11-12T19:35:13.988Z,11.05
2022-11-12T19:40:15.504Z,10.63
2022-11-12T19:45:17.852Z,13.90
2022-11-12T19:50:24.386Z,12.50
2022-11-12T19:55:28.489Z,74.72
2022-11-12T20:00:31.085Z,17.38
2022-11-12T20:05:34.982Z,20.58
2022-11-12T20:10:37.650Z,18.77
2022-11-12T20:15:39.189Z,10.65
2022-11-12T20:20:40.609Z,9.30
2022-11-12T20:25:42.803Z,8.38
2022-11-12T20:30:45.259Z,12.02
2022-11-12T20:35:46.684Z,13.02
2022-11-12T20:40:48.263Z,15.68
2022-11-12T20:45:52.617Z,25.63
2022-11-12T20:51:25.093Z,18.00
2022-11-12T20:56:28.998Z,10.93
2022-11-12T21:01:30.862Z,13.40
2022-11-12T21:06:33.248Z,15.23
2022-11-12T21:11:35.046Z,10.02
2022-11-12T21:16:36.678Z,8.90
2022-11-12T21:21:38.339Z,9.15
2022-11-12T21:26:41.079Z,9.88
2022-11-12T21:31:42.508Z,12.23
2022-11-12T21:36:44.165Z,18.13
2022-11-12T21:41:45.616Z,10.68
2022-11-12T21:46:47.058Z,9.20
2022-11-12T21:51:48.500Z,11.05
2022-11-12T21:56:49.964Z,14.32
2022-11-12T22:01:51.370Z,8.07
2022-11-12T22:06:52.845Z,9.95
2022-11-12T22:11:54.381Z,11.63
2022-11-12T22:16:55.911Z,13.18
2022-11-12T22:21:57.287Z,12.90
2022-11-12T22:27:02.659Z,10.30
2022-11-12T22:32:06.804Z,12.63
2022-11-12T22:37:08.306Z,7.88
2022-11-12T22:42:09.797Z,15.60
2022-11-12T22:47:11.277Z,14.38
2022-11-12T22:52:12.947Z,13.52
2022-11-12T22:57:14.375Z,14.32
2022-11-12T23:02:15.809Z,17.15
2022-11-12T23:07:17.394Z,13.15
2022-11-12T23:12:21.275Z,6.65
2022-11-12T23:17:22.674Z,10.20
2022-11-12T23:22:24.081Z,11.07
2022-11-12T23:27:25.667Z,11.48
2022-11-12T23:32:27.298Z,11.32
2022-11-12T23:37:28.686Z,11.50
2022-11-12T23:42:30.284Z,15.23
2022-11-12T23:47:31.944Z,13.75
2022-11-12T23:52:33.446Z,11.90
2022-11-12T23:57:34.865Z,10.70
